sensor_id;sensor_type;location;lat;lon;timestamp;P1;durP1;ratioP1;P2;durP2;ratioP2
11066;SDS011;29763;50.904;5.530;2023-08-06T00:00:11;3.78;;;1.98;;
11066;SDS011;29763;50.904;5.530;2023-08-06T00:02:45;2.65;;;1.88;;
11066;SDS011;29763;50.904;5.530;2023-08-06T00:05:12;3.05;;;1.77;;
11066;SDS011;29763;50.904;5.530;2023-08-06T00:07:38;3.35;;;1.90;;
11066;SDS011;29763;50.904;5.530;2023-08-06T00:10:05;4.43;;;1.92;;
11066;SDS011;29763;50.904;5.530;2023-08-06T00:12:32;4.63;;;2.00;;
11066;SDS011;29763;50.904;5.530;2023-08-06T00:14:59;2.55;;;1.80;;
11066;SDS011;29763;50.904;5.530;2023-08-06T00:17:25;5.25;;;1.80;;
11066;SDS011;29763;50.904;5.530;2023-08-06T00:19:55;2.80;;;1.70;;
11066;SDS011;29763;50.904;5.530;2023-08-06T00:22:41;3.30;;;1.85;;
11066;SDS011;29763;50.904;5.530;2023-08-06T00:25:08;3.53;;;1.77;;
11066;SDS011;29763;50.904;5.530;2023-08-06T00:27:34;3.45;;;1.40;;
11066;SDS011;29763;50.904;5.530;2023-08-06T00:30:06;3.50;;;1.90;;
11066;SDS011;29763;50.904;5.530;2023-08-06T00:32:35;4.15;;;1.50;;
11066;SDS011;29763;50.904;5.530;2023-08-06T00:35:09;3.00;;;1.70;;
11066;SDS011;29763;50.904;5.530;2023-08-06T00:37:43;4.00;;;1.58;;
11066;SDS011;29763;50.904;5.530;2023-08-06T00:40:08;6.07;;;1.63;;
11066;SDS011;29763;50.904;5.530;2023-08-06T00:42:37;2.58;;;1.33;;
11066;SDS011;29763;50.904;5.530;2023-08-06T00:45:03;4.47;;;1.73;;
11066;SDS011;29763;50.904;5.530;2023-08-06T00:47:35;2.60;;;1.30;;
11066;SDS011;29763;50.904;5.530;2023-08-06T00:50:12;4.72;;;1.58;;
11066;SDS011;29763;50.904;5.530;2023-08-06T00:52:48;2.72;;;1.50;;
11066;SDS011;29763;50.904;5.530;2023-08-06T00:55:35;4.78;;;1.40;;
11066;SDS011;29763;50.904;5.530;2023-08-06T00:58:03;1.38;;;1.20;;
11066;SDS011;29763;50.904;5.530;2023-08-06T01:00:30;3.78;;;1.83;;
11066;SDS011;29763;50.904;5.530;2023-08-06T01:03:01;3.13;;;1.50;;
11066;SDS011;29763;50.904;5.530;2023-08-06T01:05:27;3.83;;;1.52;;
11066;SDS011;29763;50.904;5.530;2023-08-06T01:10:50;3.05;;;1.60;;
11066;SDS011;29763;50.904;5.530;2023-08-06T01:14:06;3.45;;;1.58;;
11066;SDS011;29763;50.904;5.530;2023-08-06T01:16:35;3.25;;;1.25;;
11066;SDS011;29763;50.904;5.530;2023-08-06T01:19:07;2.83;;;1.38;;
11066;SDS011;29763;50.904;5.530;2023-08-06T01:22:15;2.22;;;1.40;;
11066;SDS011;29763;50.904;5.530;2023-08-06T01:24:40;2.90;;;1.60;;
11066;SDS011;29763;50.904;5.530;2023-08-06T01:30:26;2.30;;;1.25;;
11066;SDS011;29763;50.904;5.530;2023-08-06T01:33:04;1.95;;;1.17;;
11066;SDS011;29763;50.904;5.530;2023-08-06T01:35:35;3.80;;;1.25;;
11066;SDS011;29763;50.904;5.530;2023-08-06T01:38:05;1.90;;;1.40;;
11066;SDS011;29763;50.904;5.530;2023-08-06T01:40:38;3.35;;;1.27;;
11066;SDS011;29763;50.904;5.530;2023-08-06T01:43:04;1.88;;;1.25;;
11066;SDS011;29763;50.904;5.530;2023-08-06T01:45:53;5.40;;;1.23;;
11066;SDS011;29763;50.904;5.530;2023-08-06T01:48:30;3.38;;;1.30;;
11066;SDS011;29763;50.904;5.530;2023-08-06T01:50:56;2.33;;;1.23;;
11066;SDS011;29763;50.904;5.530;2023-08-06T01:53:28;2.03;;;1.45;;
11066;SDS011;29763;50.904;5.530;2023-08-06T01:55:54;2.40;;;1.45;;
11066;SDS011;29763;50.904;5.530;2023-08-06T01:58:20;1.90;;;1.13;;
11066;SDS011;29763;50.904;5.530;2023-08-06T02:00:47;2.72;;;1.38;;
11066;SDS011;29763;50.904;5.530;2023-08-06T02:03:14;3.10;;;1.25;;
11066;SDS011;29763;50.904;5.530;2023-08-06T02:05:40;2.70;;;1.23;;
11066;SDS011;29763;50.904;5.530;2023-08-06T02:08:12;3.15;;;1.38;;
11066;SDS011;29763;50.904;5.530;2023-08-06T02:10:41;1.10;;;0.93;;
11066;SDS011;29763;50.904;5.530;2023-08-06T02:13:09;2.00;;;1.20;;
11066;SDS011;29763;50.904;5.530;2023-08-06T02:15:44;2.03;;;1.15;;
11066;SDS011;29763;50.904;5.530;2023-08-06T02:18:13;1.45;;;1.27;;
11066;SDS011;29763;50.904;5.530;2023-08-06T02:20:40;3.25;;;1.10;;
11066;SDS011;29763;50.904;5.530;2023-08-06T02:23:06;1.52;;;1.25;;
11066;SDS011;29763;50.904;5.530;2023-08-06T02:25:32;3.00;;;1.38;;
11066;SDS011;29763;50.904;5.530;2023-08-06T02:28:05;2.08;;;1.20;;
11066;SDS011;29763;50.904;5.530;2023-08-06T02:30:31;3.72;;;1.10;;
11066;SDS011;29763;50.904;5.530;2023-08-06T02:32:58;3.00;;;1.30;;
11066;SDS011;29763;50.904;5.530;2023-08-06T02:35:26;2.60;;;1.23;;
11066;SDS011;29763;50.904;5.530;2023-08-06T02:37:52;2.78;;;1.33;;
11066;SDS011;29763;50.904;5.530;2023-08-06T02:40:21;1.25;;;1.10;;
11066;SDS011;29763;50.904;5.530;2023-08-06T02:42:47;2.00;;;1.20;;
11066;SDS011;29763;50.904;5.530;2023-08-06T02:45:15;2.63;;;1.35;;
11066;SDS011;29763;50.904;5.530;2023-08-06T02:47:44;1.30;;;1.20;;
11066;SDS011;29763;50.904;5.530;2023-08-06T02:50:10;3.42;;;1.40;;
11066;SDS011;29763;50.904;5.530;2023-08-06T02:52:39;0.93;;;0.93;;
11066;SDS011;29763;50.904;5.530;2023-08-06T02:55:07;1.80;;;1.30;;
11066;SDS011;29763;50.904;5.530;2023-08-06T02:57:38;1.73;;;1.20;;
11066;SDS011;29763;50.904;5.530;2023-08-06T03:00:04;5.53;;;1.27;;
11066;SDS011;29763;50.904;5.530;2023-08-06T03:02:43;2.63;;;1.42;;
11066;SDS011;29763;50.904;5.530;2023-08-06T03:05:09;3.10;;;1.45;;
11066;SDS011;29763;50.904;5.530;2023-08-06T03:07:41;1.40;;;1.30;;
11066;SDS011;29763;50.904;5.530;2023-08-06T03:10:07;1.70;;;1.35;;
11066;SDS011;29763;50.904;5.530;2023-08-06T03:12:33;2.60;;;1.75;;
11066;SDS011;29763;50.904;5.530;2023-08-06T03:15:02;2.63;;;1.45;;
11066;SDS011;29763;50.904;5.530;2023-08-06T03:17:37;2.30;;;1.45;;
11066;SDS011;29763;50.904;5.530;2023-08-06T03:20:04;1.83;;;1.60;;
11066;SDS011;29763;50.904;5.530;2023-08-06T03:22:33;1.90;;;1.70;;
11066;SDS011;29763;50.904;5.530;2023-08-06T03:25:00;2.60;;;1.52;;
11066;SDS011;29763;50.904;5.530;2023-08-06T03:27:25;1.60;;;1.50;;
11066;SDS011;29763;50.904;5.530;2023-08-06T03:29:51;2.42;;;1.60;;
11066;SDS011;29763;50.904;5.530;2023-08-06T03:32:33;1.63;;;1.40;;
11066;SDS011;29763;50.904;5.530;2023-08-06T03:35:02;2.72;;;1.80;;
11066;SDS011;29763;50.904;5.530;2023-08-06T03:37:28;3.10;;;1.73;;
11066;SDS011;29763;50.904;5.530;2023-08-06T03:40:00;1.95;;;1.75;;
11066;SDS011;29763;50.904;5.530;2023-08-06T03:42:27;1.90;;;1.67;;
11066;SDS011;29763;50.904;5.530;2023-08-06T03:44:53;2.85;;;1.90;;
11066;SDS011;29763;50.904;5.530;2023-08-06T03:47:20;2.50;;;2.22;;
11066;SDS011;29763;50.904;5.530;2023-08-06T03:49:48;3.67;;;2.35;;
11066;SDS011;29763;50.904;5.530;2023-08-06T03:52:15;2.83;;;2.40;;
11066;SDS011;29763;50.904;5.530;2023-08-06T03:54:41;3.97;;;2.90;;
11066;SDS011;29763;50.904;5.530;2023-08-06T03:57:08;3.63;;;3.13;;
11066;SDS011;29763;50.904;5.530;2023-08-06T03:59:38;4.53;;;3.53;;
11066;SDS011;29763;50.904;5.530;2023-08-06T04:02:04;3.60;;;3.30;;
11066;SDS011;29763;50.904;5.530;2023-08-06T04:04:31;4.00;;;3.33;;
11066;SDS011;29763;50.904;5.530;2023-08-06T04:06:56;4.53;;;3.50;;
11066;SDS011;29763;50.904;5.530;2023-08-06T04:09:22;4.40;;;3.60;;
11066;SDS011;29763;50.904;5.530;2023-08-06T04:11:49;6.32;;;3.70;;
11066;SDS011;29763;50.904;5.530;2023-08-06T04:14:16;4.30;;;3.85;;
11066;SDS011;29763;50.904;5.530;2023-08-06T04:16:45;6.85;;;3.72;;
11066;SDS011;29763;50.904;5.530;2023-08-06T04:19:10;6.05;;;4.32;;
11066;SDS011;29763;50.904;5.530;2023-08-06T04:21:37;6.13;;;4.07;;
11066;SDS011;29763;50.904;5.530;2023-08-06T04:24:03;5.72;;;4.30;;
11066;SDS011;29763;50.904;5.530;2023-08-06T04:26:31;6.25;;;4.63;;
11066;SDS011;29763;50.904;5.530;2023-08-06T04:28:58;6.35;;;4.50;;
11066;SDS011;29763;50.904;5.530;2023-08-06T04:31:30;5.80;;;4.70;;
11066;SDS011;29763;50.904;5.530;2023-08-06T04:33:56;8.77;;;4.90;;
11066;SDS011;29763;50.904;5.530;2023-08-06T04:36:23;6.53;;;4.82;;
11066;SDS011;29763;50.904;5.530;2023-08-06T04:38:54;7.93;;;4.85;;
11066;SDS011;29763;50.904;5.530;2023-08-06T04:41:29;5.57;;;5.00;;
11066;SDS011;29763;50.904;5.530;2023-08-06T04:43:57;8.43;;;5.20;;
11066;SDS011;29763;50.904;5.530;2023-08-06T04:46:24;6.88;;;5.07;;
11066;SDS011;29763;50.904;5.530;2023-08-06T04:48:54;5.85;;;5.28;;
11066;SDS011;29763;50.904;5.530;2023-08-06T04:51:30;9.63;;;5.63;;
11066;SDS011;29763;50.904;5.530;2023-08-06T04:53:58;7.07;;;5.22;;
11066;SDS011;29763;50.904;5.530;2023-08-06T04:56:25;7.22;;;5.47;;
11066;SDS011;29763;50.904;5.530;2023-08-06T04:58:54;10.43;;;5.95;;
11066;SDS011;29763;50.904;5.530;2023-08-06T05:01:19;6.93;;;5.15;;
11066;SDS011;29763;50.904;5.530;2023-08-06T05:03:47;7.82;;;5.68;;
11066;SDS011;29763;50.904;5.530;2023-08-06T05:06:20;6.90;;;5.63;;
11066;SDS011;29763;50.904;5.530;2023-08-06T05:08:53;6.07;;;5.47;;
11066;SDS011;29763;50.904;5.530;2023-08-06T05:11:18;10.40;;;5.38;;
11066;SDS011;29763;50.904;5.530;2023-08-06T05:14:01;7.85;;;5.40;;
11066;SDS011;29763;50.904;5.530;2023-08-06T05:16:28;8.52;;;5.50;;
11066;SDS011;29763;50.904;5.530;2023-08-06T05:18:55;8.43;;;5.47;;
11066;SDS011;29763;50.904;5.530;2023-08-06T05:21:20;9.25;;;6.28;;
11066;SDS011;29763;50.904;5.530;2023-08-06T05:23:47;6.85;;;5.35;;
11066;SDS011;29763;50.904;5.530;2023-08-06T05:26:16;6.53;;;5.32;;
11066;SDS011;29763;50.904;5.530;2023-08-06T05:28:45;6.15;;;5.47;;
11066;SDS011;29763;50.904;5.530;2023-08-06T05:31:17;6.22;;;5.63;;
11066;SDS011;29763;50.904;5.530;2023-08-06T05:33:48;8.40;;;6.47;;
11066;SDS011;29763;50.904;5.530;2023-08-06T05:36:15;7.15;;;5.68;;
11066;SDS011;29763;50.904;5.530;2023-08-06T05:38:44;7.28;;;5.20;;
11066;SDS011;29763;50.904;5.530;2023-08-06T05:41:09;6.45;;;5.63;;
11066;SDS011;29763;50.904;5.530;2023-08-06T05:43:39;5.50;;;4.97;;
11066;SDS011;29763;50.904;5.530;2023-08-06T05:46:06;5.70;;;5.10;;
11066;SDS011;29763;50.904;5.530;2023-08-06T05:48:33;5.60;;;5.10;;
11066;SDS011;29763;50.904;5.530;2023-08-06T05:50:59;6.00;;;5.18;;
11066;SDS011;29763;50.904;5.530;2023-08-06T05:53:29;5.35;;;4.88;;
11066;SDS011;29763;50.904;5.530;2023-08-06T05:55:55;4.68;;;4.22;;
11066;SDS011;29763;50.904;5.530;2023-08-06T05:58:22;4.35;;;3.95;;
11066;SDS011;29763;50.904;5.530;2023-08-06T06:00:51;4.15;;;3.55;;
11066;SDS011;29763;50.904;5.530;2023-08-06T06:03:17;4.28;;;3.40;;
11066;SDS011;29763;50.904;5.530;2023-08-06T06:05:43;4.07;;;3.67;;
11066;SDS011;29763;50.904;5.530;2023-08-06T06:08:10;3.30;;;3.00;;
11066;SDS011;29763;50.904;5.530;2023-08-06T06:10:36;3.85;;;3.10;;
11066;SDS011;29763;50.904;5.530;2023-08-06T06:13:11;3.00;;;2.40;;
11066;SDS011;29763;50.904;5.530;2023-08-06T06:15:42;2.97;;;1.77;;
11066;SDS011;29763;50.904;5.530;2023-08-06T06:18:37;4.25;;;1.88;;
11066;SDS011;29763;50.904;5.530;2023-08-06T06:21:24;2.17;;;1.83;;
11066;SDS011;29763;50.904;5.530;2023-08-06T06:27:11;2.45;;;1.10;;
11066;SDS011;29763;50.904;5.530;2023-08-06T06:30:05;1.67;;;0.98;;
11066;SDS011;29763;50.904;5.530;2023-08-06T06:33:19;1.98;;;1.80;;
11066;SDS011;29763;50.904;5.530;2023-08-06T06:35:48;2.97;;;1.52;;
11066;SDS011;29763;50.904;5.530;2023-08-06T06:38:33;1.92;;;1.83;;
11066;SDS011;29763;50.904;5.530;2023-08-06T06:41:18;2.00;;;1.80;;
11066;SDS011;29763;50.904;5.530;2023-08-06T06:44:02;2.70;;;1.73;;
11066;SDS011;29763;50.904;5.530;2023-08-06T06:46:41;1.75;;;1.65;;
11066;SDS011;29763;50.904;5.530;2023-08-06T06:49:27;3.50;;;1.63;;
11066;SDS011;29763;50.904;5.530;2023-08-06T06:51:57;3.45;;;1.70;;
11066;SDS011;29763;50.904;5.530;2023-08-06T06:54:27;1.63;;;1.52;;
11066;SDS011;29763;50.904;5.530;2023-08-06T06:57:10;3.40;;;1.63;;
11066;SDS011;29763;50.904;5.530;2023-08-06T06:59:48;2.35;;;2.15;;
11066;SDS011;29763;50.904;5.530;2023-08-06T07:02:15;3.10;;;2.40;;
11066;SDS011;29763;50.904;5.530;2023-08-06T07:04:41;2.80;;;2.60;;
11066;SDS011;29763;50.904;5.530;2023-08-06T07:07:07;3.13;;;2.80;;
11066;SDS011;29763;50.904;5.530;2023-08-06T07:09:32;3.40;;;3.10;;
11066;SDS011;29763;50.904;5.530;2023-08-06T07:12:07;3.70;;;3.30;;
11066;SDS011;29763;50.904;5.530;2023-08-06T07:14:33;4.07;;;3.63;;
11066;SDS011;29763;50.904;5.530;2023-08-06T07:17:03;4.28;;;3.88;;
11066;SDS011;29763;50.904;5.530;2023-08-06T07:19:31;4.53;;;4.00;;
11066;SDS011;29763;50.904;5.530;2023-08-06T07:21:59;4.57;;;4.18;;
11066;SDS011;29763;50.904;5.530;2023-08-06T07:27:08;4.05;;;3.72;;
11066;SDS011;29763;50.904;5.530;2023-08-06T07:29:35;4.35;;;3.90;;
11066;SDS011;29763;50.904;5.530;2023-08-06T07:32:07;4.30;;;3.90;;
11066;SDS011;29763;50.904;5.530;2023-08-06T07:34:37;4.20;;;3.83;;
11066;SDS011;29763;50.904;5.530;2023-08-06T07:37:03;3.97;;;3.67;;
11066;SDS011;29763;50.904;5.530;2023-08-06T07:39:30;4.82;;;4.07;;
11066;SDS011;29763;50.904;5.530;2023-08-06T07:41:56;4.25;;;3.80;;
11066;SDS011;29763;50.904;5.530;2023-08-06T07:44:21;4.22;;;3.83;;
11066;SDS011;29763;50.904;5.530;2023-08-06T07:46:47;4.32;;;3.85;;
11066;SDS011;29763;50.904;5.530;2023-08-06T07:49:13;4.15;;;3.40;;
11066;SDS011;29763;50.904;5.530;2023-08-06T07:51:39;4.43;;;3.28;;
11066;SDS011;29763;50.904;5.530;2023-08-06T07:54:05;3.95;;;3.53;;
11066;SDS011;29763;50.904;5.530;2023-08-06T07:56:31;3.35;;;2.88;;
11066;SDS011;29763;50.904;5.530;2023-08-06T07:58:58;5.20;;;2.78;;
11066;SDS011;29763;50.904;5.530;2023-08-06T08:01:24;4.15;;;2.65;;
11066;SDS011;29763;50.904;5.530;2023-08-06T08:03:50;2.97;;;2.63;;
11066;SDS011;29763;50.904;5.530;2023-08-06T08:06:17;5.22;;;2.63;;
11066;SDS011;29763;50.904;5.530;2023-08-06T08:08:49;5.68;;;2.90;;
11066;SDS011;29763;50.904;5.530;2023-08-06T08:11:14;6.63;;;2.78;;
11066;SDS011;29763;50.904;5.530;2023-08-06T08:13:41;3.13;;;2.58;;
11066;SDS011;29763;50.904;5.530;2023-08-06T08:16:07;3.35;;;2.40;;
11066;SDS011;29763;50.904;5.530;2023-08-06T08:18:32;5.63;;;3.10;;
11066;SDS011;29763;50.904;5.530;2023-08-06T08:20:59;5.50;;;2.97;;
11066;SDS011;29763;50.904;5.530;2023-08-06T08:23:25;3.80;;;2.97;;
11066;SDS011;29763;50.904;5.530;2023-08-06T08:25:53;4.68;;;3.00;;
11066;SDS011;29763;50.904;5.530;2023-08-06T08:28:19;5.45;;;3.10;;
11066;SDS011;29763;50.904;5.530;2023-08-06T08:30:45;5.55;;;3.05;;
11066;SDS011;29763;50.904;5.530;2023-08-06T08:33:11;6.40;;;3.03;;
11066;SDS011;29763;50.904;5.530;2023-08-06T08:35:37;5.55;;;2.90;;
11066;SDS011;29763;50.904;5.530;2023-08-06T08:38:02;6.15;;;3.10;;
11066;SDS011;29763;50.904;5.530;2023-08-06T08:40:32;5.82;;;2.88;;
11066;SDS011;29763;50.904;5.530;2023-08-06T08:43:02;4.53;;;3.28;;
11066;SDS011;29763;50.904;5.530;2023-08-06T08:45:30;2.72;;;2.42;;
11066;SDS011;29763;50.904;5.530;2023-08-06T08:48:00;4.00;;;2.50;;
11066;SDS011;29763;50.904;5.530;2023-08-06T08:50:26;5.05;;;2.60;;
11066;SDS011;29763;50.904;5.530;2023-08-06T08:52:52;6.30;;;2.42;;
11066;SDS011;29763;50.904;5.530;2023-08-06T08:55:19;4.18;;;2.53;;
11066;SDS011;29763;50.904;5.530;2023-08-06T08:57:47;6.53;;;2.63;;
11066;SDS011;29763;50.904;5.530;2023-08-06T09:00:17;4.43;;;2.42;;
11066;SDS011;29763;50.904;5.530;2023-08-06T09:02:42;5.05;;;2.30;;
11066;SDS011;29763;50.904;5.530;2023-08-06T09:05:11;3.90;;;2.45;;
11066;SDS011;29763;50.904;5.530;2023-08-06T09:07:41;6.60;;;2.70;;
11066;SDS011;29763;50.904;5.530;2023-08-06T09:10:11;5.22;;;2.63;;
11066;SDS011;29763;50.904;5.530;2023-08-06T09:12:39;5.30;;;3.00;;
11066;SDS011;29763;50.904;5.530;2023-08-06T09:15:08;3.88;;;2.53;;
11066;SDS011;29763;50.904;5.530;2023-08-06T09:17:38;5.88;;;2.80;;
11066;SDS011;29763;50.904;5.530;2023-08-06T09:20:13;6.65;;;2.95;;
11066;SDS011;29763;50.904;5.530;2023-08-06T09:22:39;8.15;;;2.70;;
11066;SDS011;29763;50.904;5.530;2023-08-06T09:25:07;6.90;;;3.22;;
11066;SDS011;29763;50.904;5.530;2023-08-06T09:27:38;6.40;;;2.85;;
11066;SDS011;29763;50.904;5.530;2023-08-06T09:30:04;8.43;;;2.70;;
11066;SDS011;29763;50.904;5.530;2023-08-06T09:32:46;6.95;;;2.40;;
11066;SDS011;29763;50.904;5.530;2023-08-06T09:35:16;4.55;;;2.40;;
11066;SDS011;29763;50.904;5.530;2023-08-06T09:37:42;8.82;;;2.30;;
11066;SDS011;29763;50.904;5.530;2023-08-06T09:40:24;10.30;;;2.58;;
11066;SDS011;29763;50.904;5.530;2023-08-06T09:42:58;6.32;;;2.60;;
11066;SDS011;29763;50.904;5.530;2023-08-06T09:45:34;5.85;;;2.28;;
11066;SDS011;29763;50.904;5.530;2023-08-06T09:48:05;7.88;;;2.35;;
11066;SDS011;29763;50.904;5.530;2023-08-06T09:50:32;8.30;;;2.25;;
11066;SDS011;29763;50.904;5.530;2023-08-06T09:53:03;6.93;;;2.35;;
11066;SDS011;29763;50.904;5.530;2023-08-06T09:55:29;6.85;;;2.50;;
11066;SDS011;29763;50.904;5.530;2023-08-06T09:57:58;6.43;;;2.50;;
11066;SDS011;29763;50.904;5.530;2023-08-06T10:00:26;9.07;;;2.53;;
11066;SDS011;29763;50.904;5.530;2023-08-06T10:02:54;7.60;;;2.33;;
11066;SDS011;29763;50.904;5.530;2023-08-06T10:05:25;8.27;;;2.92;;
11066;SDS011;29763;50.904;5.530;2023-08-06T10:07:52;6.72;;;2.53;;
11066;SDS011;29763;50.904;5.530;2023-08-06T10:10:22;5.10;;;2.05;;
11066;SDS011;29763;50.904;5.530;2023-08-06T10:12:52;5.18;;;1.90;;
11066;SDS011;29763;50.904;5.530;2023-08-06T10:15:22;3.58;;;2.05;;
11066;SDS011;29763;50.904;5.530;2023-08-06T10:17:54;5.07;;;2.17;;
11066;SDS011;29763;50.904;5.530;2023-08-06T10:20:23;4.93;;;2.00;;
11066;SDS011;29763;50.904;5.530;2023-08-06T10:23:10;5.75;;;2.03;;
11066;SDS011;29763;50.904;5.530;2023-08-06T10:25:42;5.22;;;2.33;;
11066;SDS011;29763;50.904;5.530;2023-08-06T10:28:08;7.22;;;2.38;;
11066;SDS011;29763;50.904;5.530;2023-08-06T10:30:44;4.68;;;2.40;;
11066;SDS011;29763;50.904;5.530;2023-08-06T10:33:11;3.05;;;1.70;;
11066;SDS011;29763;50.904;5.530;2023-08-06T10:35:41;5.70;;;2.08;;
11066;SDS011;29763;50.904;5.530;2023-08-06T10:43:25;4.38;;;1.85;;
11066;SDS011;29763;50.904;5.530;2023-08-06T10:45:59;5.03;;;2.15;;
11066;SDS011;29763;50.904;5.530;2023-08-06T10:48:38;3.63;;;1.90;;
11066;SDS011;29763;50.904;5.530;2023-08-06T10:51:08;3.90;;;2.30;;
11066;SDS011;29763;50.904;5.530;2023-08-06T10:53:35;5.55;;;2.20;;
11066;SDS011;29763;50.904;5.530;2023-08-06T10:56:02;4.65;;;2.20;;
11066;SDS011;29763;50.904;5.530;2023-08-06T10:58:36;3.20;;;1.90;;
11066;SDS011;29763;50.904;5.530;2023-08-06T11:01:02;5.68;;;2.28;;
11066;SDS011;29763;50.904;5.530;2023-08-06T11:03:28;4.95;;;2.15;;
11066;SDS011;29763;50.904;5.530;2023-08-06T11:05:54;4.07;;;2.20;;
11066;SDS011;29763;50.904;5.530;2023-08-06T11:08:28;4.65;;;1.85;;
11066;SDS011;29763;50.904;5.530;2023-08-06T11:11:19;3.88;;;1.67;;
11066;SDS011;29763;50.904;5.530;2023-08-06T11:13:48;3.55;;;1.83;;
11066;SDS011;29763;50.904;5.530;2023-08-06T11:16:15;3.80;;;1.50;;
11066;SDS011;29763;50.904;5.530;2023-08-06T11:18:46;3.00;;;1.83;;
11066;SDS011;29763;50.904;5.530;2023-08-06T11:21:12;2.08;;;1.70;;
11066;SDS011;29763;50.904;5.530;2023-08-06T11:23:38;4.00;;;1.70;;
11066;SDS011;29763;50.904;5.530;2023-08-06T11:26:06;4.60;;;2.00;;
11066;SDS011;29763;50.904;5.530;2023-08-06T11:28:36;2.70;;;2.08;;
11066;SDS011;29763;50.904;5.530;2023-08-06T11:31:01;3.63;;;1.90;;
11066;SDS011;29763;50.904;5.530;2023-08-06T11:33:28;6.55;;;2.40;;
11066;SDS011;29763;50.904;5.530;2023-08-06T11:35:55;4.70;;;1.80;;
11066;SDS011;29763;50.904;5.530;2023-08-06T11:38:22;2.88;;;1.70;;
11066;SDS011;29763;50.904;5.530;2023-08-06T11:40:51;2.95;;;1.33;;
11066;SDS011;29763;50.904;5.530;2023-08-06T11:43:18;5.00;;;1.80;;
11066;SDS011;29763;50.904;5.530;2023-08-06T11:45:45;2.25;;;1.40;;
11066;SDS011;29763;50.904;5.530;2023-08-06T11:48:12;2.03;;;1.38;;
11066;SDS011;29763;50.904;5.530;2023-08-06T11:50:37;2.83;;;1.75;;
11066;SDS011;29763;50.904;5.530;2023-08-06T11:53:05;3.85;;;1.55;;
11066;SDS011;29763;50.904;5.530;2023-08-06T11:55:31;3.00;;;1.63;;
11066;SDS011;29763;50.904;5.530;2023-08-06T11:57:58;4.55;;;1.50;;
11066;SDS011;29763;50.904;5.530;2023-08-06T12:00:25;3.60;;;1.60;;
11066;SDS011;29763;50.904;5.530;2023-08-06T12:02:51;3.80;;;1.58;;
11066;SDS011;29763;50.904;5.530;2023-08-06T12:05:18;3.63;;;1.70;;
11066;SDS011;29763;50.904;5.530;2023-08-06T12:10:36;3.80;;;1.80;;
11066;SDS011;29763;50.904;5.530;2023-08-06T12:13:02;4.70;;;1.80;;
11066;SDS011;29763;50.904;5.530;2023-08-06T12:15:28;4.40;;;1.60;;
11066;SDS011;29763;50.904;5.530;2023-08-06T12:17:53;3.35;;;1.23;;
11066;SDS011;29763;50.904;5.530;2023-08-06T12:20:20;4.40;;;1.50;;
11066;SDS011;29763;50.904;5.530;2023-08-06T12:22:47;3.03;;;1.48;;
11066;SDS011;29763;50.904;5.530;2023-08-06T12:25:13;2.75;;;1.40;;
11066;SDS011;29763;50.904;5.530;2023-08-06T12:27:43;3.38;;;1.27;;
11066;SDS011;29763;50.904;5.530;2023-08-06T12:30:11;3.13;;;1.50;;
11066;SDS011;29763;50.904;5.530;2023-08-06T12:32:44;4.75;;;1.60;;
11066;SDS011;29763;50.904;5.530;2023-08-06T12:35:10;2.92;;;1.55;;
11066;SDS011;29763;50.904;5.530;2023-08-06T12:37:42;4.82;;;1.83;;
11066;SDS011;29763;50.904;5.530;2023-08-06T12:40:09;2.78;;;1.30;;
11066;SDS011;29763;50.904;5.530;2023-08-06T12:42:40;2.40;;;1.33;;
11066;SDS011;29763;50.904;5.530;2023-08-06T12:45:06;2.35;;;1.17;;
11066;SDS011;29763;50.904;5.530;2023-08-06T12:47:35;3.40;;;1.38;;
11066;SDS011;29763;50.904;5.530;2023-08-06T12:50:06;2.72;;;1.38;;
11066;SDS011;29763;50.904;5.530;2023-08-06T12:52:36;2.88;;;1.40;;
11066;SDS011;29763;50.904;5.530;2023-08-06T12:55:04;3.28;;;1.42;;
11066;SDS011;29763;50.904;5.530;2023-08-06T12:57:31;2.30;;;1.80;;
11066;SDS011;29763;50.904;5.530;2023-08-06T13:00:01;4.40;;;1.45;;
11066;SDS011;29763;50.904;5.530;2023-08-06T13:02:30;4.97;;;1.80;;
11066;SDS011;29763;50.904;5.530;2023-08-06T13:04:58;2.80;;;1.63;;
11066;SDS011;29763;50.904;5.530;2023-08-06T13:07:31;4.18;;;1.77;;
11066;SDS011;29763;50.904;5.530;2023-08-06T13:09:57;5.28;;;1.60;;
11066;SDS011;29763;50.904;5.530;2023-08-06T13:12:22;4.03;;;1.50;;
11066;SDS011;29763;50.904;5.530;2023-08-06T13:14:50;4.28;;;1.83;;
11066;SDS011;29763;50.904;5.530;2023-08-06T13:17:18;3.95;;;1.38;;
11066;SDS011;29763;50.904;5.530;2023-08-06T13:19:43;3.60;;;1.60;;
11066;SDS011;29763;50.904;5.530;2023-08-06T13:22:10;2.58;;;1.50;;
11066;SDS011;29763;50.904;5.530;2023-08-06T13:24:38;3.50;;;1.52;;
11066;SDS011;29763;50.904;5.530;2023-08-06T13:27:05;4.22;;;1.58;;
11066;SDS011;29763;50.904;5.530;2023-08-06T13:29:31;3.03;;;1.60;;
11066;SDS011;29763;50.904;5.530;2023-08-06T13:31:57;2.85;;;1.30;;
11066;SDS011;29763;50.904;5.530;2023-08-06T13:34:23;2.95;;;1.67;;
11066;SDS011;29763;50.904;5.530;2023-08-06T13:36:49;2.15;;;1.60;;
11066;SDS011;29763;50.904;5.530;2023-08-06T13:39:17;2.05;;;1.52;;
11066;SDS011;29763;50.904;5.530;2023-08-06T13:41:45;2.78;;;1.65;;
11066;SDS011;29763;50.904;5.530;2023-08-06T13:44:11;3.05;;;2.10;;
11066;SDS011;29763;50.904;5.530;2023-08-06T13:46:41;5.00;;;1.70;;
11066;SDS011;29763;50.904;5.530;2023-08-06T13:49:07;1.60;;;1.50;;
11066;SDS011;29763;50.904;5.530;2023-08-06T13:51:33;5.80;;;1.92;;
11066;SDS011;29763;50.904;5.530;2023-08-06T13:54:08;2.92;;;1.67;;
11066;SDS011;29763;50.904;5.530;2023-08-06T13:56:34;2.13;;;1.50;;
11066;SDS011;29763;50.904;5.530;2023-08-06T13:59:01;4.90;;;2.05;;
11066;SDS011;29763;50.904;5.530;2023-08-06T14:01:29;2.67;;;1.60;;
11066;SDS011;29763;50.904;5.530;2023-08-06T14:03:55;3.70;;;1.58;;
11066;SDS011;29763;50.904;5.530;2023-08-06T14:09:07;6.38;;;2.13;;
11066;SDS011;29763;50.904;5.530;2023-08-06T14:11:37;5.03;;;1.73;;
11066;SDS011;29763;50.904;5.530;2023-08-06T14:14:04;3.10;;;1.90;;
11066;SDS011;29763;50.904;5.530;2023-08-06T14:16:30;2.50;;;1.50;;
11066;SDS011;29763;50.904;5.530;2023-08-06T14:18:57;2.25;;;1.48;;
11066;SDS011;29763;50.904;5.530;2023-08-06T14:21:29;2.78;;;1.50;;
11066;SDS011;29763;50.904;5.530;2023-08-06T14:23:58;2.80;;;1.50;;
11066;SDS011;29763;50.904;5.530;2023-08-06T14:26:24;3.13;;;1.50;;
11066;SDS011;29763;50.904;5.530;2023-08-06T14:28:50;4.22;;;1.42;;
11066;SDS011;29763;50.904;5.530;2023-08-06T14:31:19;2.83;;;1.30;;
11066;SDS011;29763;50.904;5.530;2023-08-06T14:33:46;4.05;;;1.55;;
11066;SDS011;29763;50.904;5.530;2023-08-06T14:36:18;4.05;;;1.60;;
11066;SDS011;29763;50.904;5.530;2023-08-06T14:38:44;3.70;;;1.40;;
11066;SDS011;29763;50.904;5.530;2023-08-06T14:41:11;2.45;;;1.10;;
11066;SDS011;29763;50.904;5.530;2023-08-06T14:43:40;1.85;;;0.90;;
11066;SDS011;29763;50.904;5.530;2023-08-06T14:46:06;2.05;;;1.00;;
11066;SDS011;29763;50.904;5.530;2023-08-06T14:48:35;2.55;;;1.13;;
11066;SDS011;29763;50.904;5.530;2023-08-06T14:51:01;1.35;;;1.10;;
11066;SDS011;29763;50.904;5.530;2023-08-06T14:53:27;1.70;;;0.85;;
11066;SDS011;29763;50.904;5.530;2023-08-06T14:55:52;3.45;;;1.00;;
11066;SDS011;29763;50.904;5.530;2023-08-06T14:58:19;2.58;;;1.30;;
11066;SDS011;29763;50.904;5.530;2023-08-06T15:00:46;1.45;;;0.93;;
11066;SDS011;29763;50.904;5.530;2023-08-06T15:03:13;1.55;;;0.90;;
11066;SDS011;29763;50.904;5.530;2023-08-06T15:05:48;3.85;;;1.00;;
11066;SDS011;29763;50.904;5.530;2023-08-06T15:08:21;1.00;;;0.80;;
11066;SDS011;29763;50.904;5.530;2023-08-06T15:10:52;2.10;;;0.88;;
11066;SDS011;29763;50.904;5.530;2023-08-06T15:13:24;2.30;;;1.17;;
11066;SDS011;29763;50.904;5.530;2023-08-06T15:15:50;1.45;;;1.10;;
11066;SDS011;29763;50.904;5.530;2023-08-06T15:18:18;3.83;;;0.93;;
11066;SDS011;29763;50.904;5.530;2023-08-06T15:20:44;1.88;;;1.17;;
11066;SDS011;29763;50.904;5.530;2023-08-06T15:23:10;1.65;;;0.90;;